createdAt,value
2023-04-20T00:01:13.843Z,14.00
2023-04-20T00:03:41.320Z,14.09
2023-04-20T00:06:09.190Z,14.16
2023-04-20T00:08:36.261Z,14.08
2023-04-20T00:11:03.343Z,14.13
2023-04-20T00:13:30.669Z,13.88
2023-04-20T00:15:57.770Z,13.88
2023-04-20T00:18:24.808Z,13.84
2023-04-20T00:20:51.973Z,13.98
2023-04-20T00:23:19.018Z,13.95
2023-04-20T00:25:46.035Z,13.82
2023-04-20T00:28:13.241Z,13.72
2023-04-20T00:30:41.265Z,13.73
2023-04-20T00:33:08.462Z,13.67
2023-04-20T00:35:35.680Z,13.59
2023-04-20T00:38:02.839Z,13.43
2023-04-20T00:40:30.275Z,13.45
2023-04-20T00:42:57.434Z,13.38
2023-04-20T00:45:24.555Z,13.43
2023-04-20T00:47:51.730Z,13.35
2023-04-20T00:50:19.086Z,13.34
2023-04-20T00:52:46.897Z,13.28
2023-04-20T00:55:14.002Z,13.12
2023-04-20T00:57:41.667Z,13.19
2023-04-20T01:00:10.586Z,13.19
2023-04-20T01:02:37.831Z,13.18
2023-04-20T01:05:08.460Z,13.17
2023-04-20T01:07:36.722Z,13.28
2023-04-20T01:10:04.349Z,13.32
2023-04-20T01:12:31.434Z,13.34
2023-04-20T01:14:58.462Z,13.30
2023-04-20T01:17:25.706Z,13.40
2023-04-20T01:19:52.831Z,13.44
2023-04-20T01:22:21.368Z,13.41
2023-04-20T01:24:48.957Z,13.53
2023-04-20T01:27:17.111Z,13.42
2023-04-20T01:29:44.559Z,13.64
2023-04-20T01:32:12.128Z,13.56
2023-04-20T01:34:39.172Z,13.33
2023-04-20T01:37:08.282Z,13.23
2023-04-20T01:39:38.887Z,13.18
2023-04-20T01:42:06.132Z,13.20
2023-04-20T01:44:33.216Z,13.13
2023-04-20T01:47:00.511Z,13.30
2023-04-20T01:49:27.784Z,13.16
2023-04-20T01:51:55.696Z,13.36
2023-04-20T01:54:22.902Z,13.13
2023-04-20T01:56:49.955Z,13.01
2023-04-20T01:59:17.229Z,13.05
2023-04-20T02:01:44.463Z,13.00
2023-04-20T02:04:11.642Z,13.04
2023-04-20T02:06:40.948Z,13.04
2023-04-20T02:09:10.198Z,13.07
2023-04-20T02:11:37.371Z,13.06
2023-04-20T02:14:06.841Z,13.06
2023-04-20T02:16:35.508Z,13.09
2023-04-20T02:19:03.055Z,13.03
2023-04-20T02:21:30.249Z,13.03
2023-04-20T02:23:57.583Z,12.89
2023-04-20T02:26:26.826Z,12.78
2023-04-20T02:28:53.935Z,12.70
2023-04-20T02:31:21.138Z,12.82
2023-04-20T02:33:49.928Z,12.88
2023-04-20T02:36:17.068Z,12.85
2023-04-20T02:38:44.087Z,12.72
2023-04-20T02:41:11.192Z,12.66
2023-04-20T02:43:38.480Z,12.67
2023-04-20T02:46:06.153Z,12.76
2023-04-20T02:48:33.244Z,12.74
2023-04-20T02:51:01.212Z,12.57
2023-04-20T02:53:33.318Z,12.56
2023-04-20T02:56:19.052Z,12.64
2023-04-20T02:58:52.231Z,12.79
2023-04-20T03:01:42.492Z,12.67
2023-04-20T03:04:22.229Z,12.69
2023-04-20T03:06:58.721Z,12.76
2023-04-20T03:09:29.550Z,12.89
2023-04-20T03:12:05.204Z,12.89
2023-04-20T03:14:48.124Z,12.98
2023-04-20T03:17:16.639Z,12.88
2023-04-20T03:19:43.989Z,12.89
2023-04-20T03:22:11.294Z,12.90
2023-04-20T03:24:38.412Z,13.05
2023-04-20T03:27:15.951Z,13.26
2023-04-20T03:29:55.743Z,13.08
2023-04-20T03:32:23.750Z,12.99
2023-04-20T03:34:50.789Z,13.01
2023-04-20T03:37:17.911Z,12.94
2023-04-20T03:39:47.582Z,12.99
2023-04-20T03:42:14.726Z,12.95
2023-04-20T03:44:42.076Z,13.00
2023-04-20T03:47:10.907Z,12.96
2023-04-20T03:49:38.171Z,12.93
2023-04-20T03:52:05.633Z,12.95
2023-04-20T03:54:33.205Z,12.91
2023-04-20T03:57:02.131Z,12.81
2023-04-20T03:59:29.351Z,12.83
2023-04-20T04:01:56.811Z,12.83
2023-04-20T04:04:24.247Z,12.91
2023-04-20T04:06:51.610Z,12.90
2023-04-20T04:09:18.837Z,12.90
2023-04-20T04:11:46.169Z,12.93
2023-04-20T04:14:13.381Z,12.91
2023-04-20T04:16:41.043Z,12.88
2023-04-20T04:19:09.785Z,12.88
2023-04-20T04:21:37.497Z,12.94
2023-04-20T04:24:05.894Z,12.85
2023-04-20T04:26:41.508Z,12.96
2023-04-20T04:29:10.488Z,12.91
2023-04-20T04:31:37.732Z,12.91
2023-04-20T04:34:13.729Z,12.86
2023-04-20T04:36:45.988Z,12.79
2023-04-20T04:39:16.918Z,12.81
2023-04-20T04:41:53.192Z,12.88
2023-04-20T04:44:31.832Z,12.91
2023-04-20T04:47:02.536Z,12.96
2023-04-20T04:49:30.849Z,13.03
2023-04-20T04:51:57.897Z,13.07
2023-04-20T04:54:24.964Z,13.13
2023-04-20T04:56:52.008Z,13.08
2023-04-20T04:59:19.196Z,13.13
2023-04-20T05:01:46.369Z,13.12
2023-04-20T05:04:13.605Z,13.26
2023-04-20T05:06:40.919Z,13.06
2023-04-20T05:09:08.225Z,13.04
2023-04-20T05:11:35.367Z,13.01
2023-04-20T05:14:03.476Z,13.02
2023-04-20T05:16:30.614Z,13.02
2023-04-20T05:18:57.789Z,13.20
2023-04-20T05:21:24.912Z,13.28
2023-04-20T05:23:52.036Z,13.19
2023-04-20T05:26:19.386Z,13.22
2023-04-20T05:28:46.523Z,13.23
2023-04-20T05:31:13.657Z,13.07
2023-04-20T05:33:41.065Z,13.14
2023-04-20T05:36:08.831Z,13.26
2023-04-20T05:38:35.926Z,13.20
2023-04-20T05:41:03.067Z,13.41
2023-04-20T05:43:30.147Z,13.39
2023-04-20T05:45:57.239Z,13.45
2023-04-20T05:48:27.855Z,13.61
2023-04-20T05:50:56.846Z,13.55
2023-04-20T05:53:23.927Z,13.60
2023-04-20T05:55:51.012Z,13.69
2023-04-20T05:58:19.377Z,13.64
2023-04-20T06:00:46.495Z,13.64
2023-04-20T06:03:13.810Z,13.63
2023-04-20T06:05:41.116Z,13.60
2023-04-20T06:08:08.309Z,13.69
2023-04-20T06:10:35.582Z,13.71
2023-04-20T06:13:02.861Z,13.76
2023-04-20T06:15:29.924Z,13.89
2023-04-20T06:17:57.324Z,13.87
2023-04-20T06:20:24.596Z,14.04
2023-04-20T06:22:51.699Z,14.17
2023-04-20T06:25:18.852Z,14.09
2023-04-20T06:27:46.666Z,14.05
2023-04-20T06:30:14.155Z,14.13
2023-04-20T06:32:41.497Z,14.14
2023-04-20T06:35:08.968Z,14.09
2023-04-20T06:37:36.658Z,14.13
2023-04-20T06:40:10.632Z,14.07
2023-04-20T06:42:37.967Z,14.06
2023-04-20T06:45:05.969Z,14.05
2023-04-20T06:47:33.892Z,13.95
2023-04-20T06:50:01.692Z,13.98
2023-04-20T06:52:28.913Z,14.01
2023-04-20T06:54:57.862Z,14.00
2023-04-20T06:57:24.954Z,14.01
2023-04-20T06:59:52.022Z,13.97
2023-04-20T07:02:19.252Z,13.93
2023-04-20T07:04:46.463Z,14.06
2023-04-20T07:07:13.569Z,14.18
2023-04-20T07:09:40.673Z,14.31
2023-04-20T07:12:08.156Z,14.37
2023-04-20T07:14:35.276Z,14.47
2023-04-20T07:17:02.379Z,14.31
2023-04-20T07:19:29.471Z,14.28
2023-04-20T07:21:56.527Z,14.30
2023-04-20T07:24:23.602Z,14.47
2023-04-20T07:26:51.400Z,14.35
2023-04-20T07:29:18.657Z,14.34
2023-04-20T07:31:46.053Z,14.44
2023-04-20T07:34:13.270Z,14.55
2023-04-20T07:36:40.397Z,14.79
2023-04-20T07:39:07.566Z,14.80
2023-04-20T07:41:34.660Z,14.82
2023-04-20T07:44:01.795Z,14.72
2023-04-20T07:46:29.025Z,14.72
2023-04-20T07:48:56.083Z,14.74
2023-04-20T07:51:23.233Z,14.61
2023-04-20T07:53:50.391Z,14.53
2023-04-20T07:56:17.475Z,14.59
2023-04-20T07:58:44.632Z,14.69
2023-04-20T08:01:11.729Z,14.74
2023-04-20T08:03:39.111Z,14.77
2023-04-20T08:06:06.643Z,14.96
2023-04-20T08:08:33.758Z,15.06
2023-04-20T08:11:00.986Z,15.48
2023-04-20T08:13:28.378Z,15.88
2023-04-20T08:15:55.685Z,16.01
2023-04-20T08:18:22.816Z,16.17
2023-04-20T08:20:51.378Z,15.93
2023-04-20T08:23:18.566Z,15.71
2023-04-20T08:25:45.740Z,16.26
2023-04-20T08:28:24.306Z,16.03
2023-04-20T08:30:56.874Z,15.88
2023-04-20T08:33:24.093Z,16.07
2023-04-20T08:35:54.293Z,16.03
2023-04-20T08:38:30.795Z,16.26
2023-04-20T08:41:00.843Z,16.26
2023-04-20T08:43:27.930Z,16.42
2023-04-20T08:45:57.834Z,16.25
2023-04-20T08:48:26.227Z,15.79
2023-04-20T08:50:54.684Z,15.57
2023-04-20T08:53:22.690Z,15.67
2023-04-20T08:55:50.368Z,15.76
2023-04-20T08:58:17.975Z,15.94
2023-04-20T09:00:48.466Z,15.84
2023-04-20T09:03:15.830Z,16.14
2023-04-20T09:05:44.264Z,16.08
2023-04-20T09:08:11.359Z,16.07
2023-04-20T09:10:39.990Z,15.88
2023-04-20T09:13:07.416Z,15.69
2023-04-20T09:15:34.478Z,15.42
2023-04-20T09:18:11.101Z,15.37
2023-04-20T09:20:38.272Z,15.23
2023-04-20T09:23:15.238Z,15.24
2023-04-20T09:25:43.613Z,15.14
2023-04-20T09:28:11.435Z,15.23
2023-04-20T09:30:45.516Z,15.07
2023-04-20T09:33:14.383Z,15.16
2023-04-20T09:35:42.466Z,15.39
2023-04-20T09:38:10.362Z,15.76
2023-04-20T09:40:37.953Z,15.79
2023-04-20T09:43:15.414Z,15.84
2023-04-20T09:45:42.883Z,15.33
2023-04-20T09:48:10.413Z,15.10
2023-04-20T09:50:48.529Z,14.93
2023-04-20T09:53:17.542Z,15.17
2023-04-20T09:55:48.660Z,15.10
2023-04-20T09:58:18.145Z,15.02
2023-04-20T10:00:45.332Z,15.09
2023-04-20T10:03:16.429Z,15.00
2023-04-20T10:05:43.727Z,15.10
2023-04-20T10:08:11.467Z,14.71
2023-04-20T10:10:46.300Z,14.75
2023-04-20T10:13:14.611Z,14.56
2023-04-20T10:15:42.316Z,14.73
2023-04-20T10:18:19.361Z,14.82
2023-04-20T10:20:46.701Z,14.89
2023-04-20T10:23:16.110Z,14.86
2023-04-20T10:25:45.416Z,14.97
2023-04-20T10:28:12.820Z,14.97
2023-04-20T10:30:50.390Z,15.02
2023-04-20T10:33:18.092Z,14.87
2023-04-20T10:35:49.300Z,14.79
2023-04-20T10:38:27.453Z,14.64
2023-04-20T10:40:54.519Z,14.37
2023-04-20T10:43:22.279Z,14.38
2023-04-20T10:45:50.302Z,14.28
2023-04-20T10:48:18.353Z,14.11
2023-04-20T10:50:46.098Z,14.08
2023-04-20T10:53:23.556Z,14.10
2023-04-20T10:56:00.233Z,14.08
2023-04-20T10:58:27.482Z,14.05
2023-04-20T11:01:01.568Z,14.12
2023-04-20T11:03:29.596Z,14.15
2023-04-20T11:06:01.059Z,14.15
2023-04-20T11:08:37.858Z,14.13
2023-04-20T11:11:05.685Z,14.01
2023-04-20T11:13:33.216Z,13.95
2023-04-20T11:16:00.499Z,13.85
2023-04-20T11:18:27.640Z,13.61
2023-04-20T11:20:55.162Z,13.62
2023-04-20T11:23:22.761Z,13.50
2023-04-20T11:25:53.891Z,13.53
2023-04-20T11:28:21.170Z,13.41
2023-04-20T11:30:49.739Z,13.44
2023-04-20T11:33:29.299Z,13.46
2023-04-20T11:36:01.012Z,13.56
2023-04-20T11:38:32.110Z,13.69
2023-04-20T11:41:04.557Z,13.61
2023-04-20T11:43:32.568Z,13.60
2023-04-20T11:46:00.040Z,13.70
2023-04-20T11:48:28.283Z,13.69
2023-04-20T11:50:55.394Z,13.52
2023-04-20T11:53:22.487Z,13.36
2023-04-20T11:55:49.525Z,13.48
2023-04-20T11:58:16.565Z,13.56
2023-04-20T12:00:43.671Z,13.63
2023-04-20T12:03:11.013Z,13.54
2023-04-20T12:05:38.398Z,13.53
2023-04-20T12:08:05.976Z,13.76
2023-04-20T12:10:33.011Z,13.81
2023-04-20T12:13:01.154Z,13.79
2023-04-20T12:15:28.225Z,13.84
2023-04-20T12:17:55.824Z,14.02
2023-04-20T12:20:23.179Z,14.14
2023-04-20T12:22:50.310Z,13.95
2023-04-20T12:25:17.443Z,13.90
2023-04-20T12:27:44.555Z,14.08
2023-04-20T12:30:12.171Z,14.04
2023-04-20T12:32:39.613Z,13.96
2023-04-20T12:35:08.520Z,14.32
2023-04-20T12:37:35.769Z,14.36
2023-04-20T12:40:05.652Z,14.27
2023-04-20T12:42:32.792Z,14.38
2023-04-20T12:44:59.913Z,14.47
2023-04-20T12:47:27.095Z,14.67
2023-04-20T12:49:55.067Z,14.82
2023-04-20T12:52:22.208Z,14.87
2023-04-20T12:54:49.932Z,15.07
2023-04-20T12:57:17.090Z,14.91
2023-04-20T12:59:44.181Z,15.06
2023-04-20T13:02:11.977Z,15.04
2023-04-20T13:04:39.186Z,14.98
2023-04-20T13:07:07.065Z,15.18
2023-04-20T13:09:34.162Z,15.27
2023-04-20T13:12:01.345Z,15.09
2023-04-20T13:14:28.473Z,14.90
2023-04-20T13:16:55.902Z,14.98
2023-04-20T13:19:23.219Z,15.44
2023-04-20T13:21:50.509Z,15.32
2023-04-20T13:24:17.865Z,15.39
2023-04-20T13:26:45.208Z,15.30
2023-04-20T13:29:12.356Z,15.29
2023-04-20T13:31:40.627Z,15.34
2023-04-20T13:34:07.860Z,14.90
2023-04-20T13:36:34.964Z,15.01
2023-04-20T13:39:02.155Z,14.94
2023-04-20T13:41:29.282Z,14.87
2023-04-20T13:43:57.706Z,14.90
2023-04-20T13:46:24.921Z,14.67
2023-04-20T13:48:52.108Z,14.77
2023-04-20T13:51:19.460Z,14.87
2023-04-20T13:53:49.672Z,14.96
2023-04-20T13:56:16.946Z,15.15
2023-04-20T13:58:44.243Z,15.23
2023-04-20T14:01:12.356Z,15.08
2023-04-20T14:03:39.632Z,15.10
2023-04-20T14:06:06.956Z,14.91
2023-04-20T14:08:34.046Z,14.88
2023-04-20T14:11:01.152Z,14.87
2023-04-20T14:13:28.381Z,14.71
2023-04-20T14:15:55.472Z,14.64
2023-04-20T14:18:22.651Z,14.52
2023-04-20T14:20:52.354Z,14.61
2023-04-20T14:23:19.796Z,14.52
2023-04-20T14:25:46.906Z,14.46
2023-04-20T14:28:14.645Z,14.42
2023-04-20T14:30:43.221Z,14.63
2023-04-20T14:33:10.740Z,14.62
2023-04-20T14:35:38.016Z,14.50
2023-04-20T14:38:05.367Z,14.35
2023-04-20T14:40:32.494Z,14.32
2023-04-20T14:42:59.640Z,14.35
2023-04-20T14:45:26.700Z,14.58
2023-04-20T14:47:54.899Z,14.44
2023-04-20T14:50:22.655Z,14.57
2023-04-20T14:52:49.812Z,14.22
2023-04-20T14:55:17.046Z,14.13
2023-04-20T14:57:44.135Z,14.11
2023-04-20T15:00:11.698Z,14.16
2023-04-20T15:02:39.040Z,14.46
2023-04-20T15:05:10.003Z,14.44
2023-04-20T15:07:37.771Z,14.56
2023-04-20T15:10:05.673Z,14.44
2023-04-20T15:12:32.836Z,14.38
2023-04-20T15:14:59.923Z,14.47
2023-04-20T15:17:27.043Z,14.51
2023-04-20T15:19:54.218Z,14.53
2023-04-20T15:22:21.460Z,14.37
2023-04-20T15:24:48.550Z,14.44
2023-04-20T15:27:17.104Z,14.41
2023-04-20T15:29:44.167Z,14.54
2023-04-20T15:32:11.361Z,14.36
2023-04-20T15:34:38.540Z,14.27
2023-04-20T15:37:05.778Z,14.28
2023-04-20T15:39:32.842Z,14.32
2023-04-20T15:41:59.946Z,14.15
2023-04-20T15:44:27.066Z,14.06
2023-04-20T15:46:54.144Z,13.84
2023-04-20T15:49:21.548Z,13.83
2023-04-20T15:51:48.774Z,13.77
2023-04-20T15:54:16.145Z,13.69
2023-04-20T15:56:43.439Z,13.70
2023-04-20T15:59:10.535Z,13.84
2023-04-20T16:01:37.776Z,13.95
2023-04-20T16:04:05.109Z,14.11
2023-04-20T16:06:32.417Z,14.00
2023-04-20T16:08:59.497Z,13.97
2023-04-20T16:11:26.641Z,14.06
2023-04-20T16:13:55.411Z,13.95
2023-04-20T16:16:22.817Z,13.98
2023-04-20T16:18:50.872Z,13.94
2023-04-20T16:21:18.667Z,13.97
2023-04-20T16:23:45.790Z,13.92
2023-04-20T16:26:12.820Z,13.93
2023-04-20T16:28:39.852Z,13.99
2023-04-20T16:31:07.061Z,14.13
2023-04-20T16:33:36.752Z,14.07
2023-04-20T16:36:04.193Z,14.12
2023-04-20T16:38:31.252Z,14.11
2023-04-20T16:40:58.430Z,14.14
2023-04-20T16:43:25.926Z,13.95
2023-04-20T16:45:53.104Z,14.04
2023-04-20T16:48:20.160Z,13.94
2023-04-20T16:50:47.252Z,13.85
2023-04-20T16:53:14.329Z,14.00
2023-04-20T16:55:41.457Z,13.84
2023-04-20T16:58:08.548Z,13.82
2023-04-20T17:00:35.828Z,13.81
2023-04-20T17:03:06.012Z,13.83
2023-04-20T17:05:33.206Z,13.81
2023-04-20T17:08:00.216Z,13.72
2023-04-20T17:10:27.284Z,13.73
2023-04-20T17:12:54.350Z,13.70
2023-04-20T17:15:21.529Z,13.65
2023-04-20T17:17:48.638Z,13.63
2023-04-20T17:20:16.101Z,13.70
2023-04-20T17:22:43.233Z,13.68
2023-04-20T17:25:10.360Z,13.71
2023-04-20T17:27:37.441Z,13.68
2023-04-20T17:30:05.109Z,13.79
2023-04-20T17:32:32.172Z,13.52
2023-04-20T17:34:59.308Z,13.43
2023-04-20T17:37:26.460Z,13.31
2023-04-20T17:39:53.896Z,13.21
2023-04-20T17:42:21.008Z,13.26
2023-04-20T17:44:48.057Z,13.32
2023-04-20T17:47:15.215Z,13.38
2023-04-20T17:49:43.325Z,13.18
2023-04-20T17:52:14.899Z,13.19
2023-04-20T17:54:42.171Z,13.03
2023-04-20T17:57:09.528Z,13.11
2023-04-20T17:59:36.547Z,12.95
2023-04-20T18:02:03.801Z,12.92
2023-04-20T18:04:31.314Z,12.79
2023-04-20T18:06:58.461Z,12.69
2023-04-20T18:09:25.544Z,12.63
2023-04-20T18:11:52.953Z,12.75
2023-04-20T18:14:21.159Z,12.71
2023-04-20T18:16:51.886Z,12.72
2023-04-20T18:19:19.104Z,12.81
2023-04-20T18:21:46.321Z,12.69
2023-04-20T18:24:13.418Z,12.61
2023-04-20T18:26:40.517Z,12.75
2023-04-20T18:29:07.620Z,12.64
2023-04-20T18:31:34.801Z,12.58
2023-04-20T18:34:01.966Z,12.63
2023-04-20T18:36:29.682Z,12.70
2023-04-20T18:38:57.455Z,12.50
2023-04-20T18:41:25.738Z,12.62
2023-04-20T18:43:53.542Z,12.63
2023-04-20T18:46:20.717Z,12.59
2023-04-20T18:48:47.813Z,12.41
2023-04-20T18:51:14.991Z,12.52
2023-04-20T18:53:42.079Z,12.40
2023-04-20T18:56:10.280Z,12.52
2023-04-20T18:58:37.520Z,12.55
2023-04-20T19:01:05.010Z,12.66
2023-04-20T19:03:32.432Z,12.65
2023-04-20T19:05:59.684Z,12.51
2023-04-20T19:08:26.881Z,12.55
2023-04-20T19:10:57.346Z,12.64
2023-04-20T19:13:24.662Z,12.63
2023-04-20T19:15:55.076Z,12.61
2023-04-20T19:18:22.275Z,12.53
2023-04-20T19:20:49.349Z,12.51
2023-04-20T19:23:17.884Z,12.48
2023-04-20T19:25:45.009Z,12.55
2023-04-20T19:28:12.238Z,12.53
2023-04-20T19:30:39.528Z,12.61
2023-04-20T19:33:06.807Z,12.66
2023-04-20T19:35:33.919Z,12.45
2023-04-20T19:38:01.068Z,12.55
2023-04-20T19:40:28.408Z,12.64
2023-04-20T19:42:55.553Z,12.61
2023-04-20T19:45:23.627Z,12.54
2023-04-20T19:47:51.817Z,12.54
2023-04-20T19:50:19.061Z,12.49
2023-04-20T19:52:46.218Z,12.51
2023-04-20T19:55:13.448Z,12.46
2023-04-20T19:57:40.609Z,12.37
2023-04-20T20:00:08.822Z,12.43
2023-04-20T20:02:44.787Z,12.50
2023-04-20T20:05:12.226Z,12.38
2023-04-20T20:07:39.291Z,12.42
2023-04-20T20:10:06.501Z,12.41
2023-04-20T20:12:33.704Z,12.39
2023-04-20T20:15:01.066Z,12.28
2023-04-20T20:17:28.268Z,12.19
2023-04-20T20:19:56.160Z,12.14
2023-04-20T20:22:23.269Z,12.12
2023-04-20T20:24:52.220Z,12.09
2023-04-20T20:27:19.394Z,12.18
2023-04-20T20:29:46.593Z,12.11
2023-04-20T20:32:13.664Z,12.09
2023-04-20T20:34:41.380Z,12.09
2023-04-20T20:37:10.295Z,12.20
2023-04-20T20:39:38.676Z,12.16
2023-04-20T20:42:07.133Z,12.15
2023-04-20T20:44:40.090Z,12.02
2023-04-20T20:47:07.257Z,11.81
2023-04-20T20:49:34.588Z,11.85
2023-04-20T20:52:02.382Z,11.98
2023-04-20T20:54:29.447Z,11.91
2023-04-20T20:56:57.539Z,11.83
2023-04-20T20:59:24.698Z,12.07
2023-04-20T21:01:51.753Z,11.95
2023-04-20T21:04:19.001Z,11.92
2023-04-20T21:06:46.120Z,12.02
2023-04-20T21:09:14.732Z,12.04
2023-04-20T21:11:41.998Z,11.98
2023-04-20T21:14:09.143Z,12.05
2023-04-20T21:16:36.294Z,12.05
2023-04-20T21:19:03.406Z,12.00
2023-04-20T21:21:30.435Z,12.06
2023-04-20T21:23:57.483Z,12.14
2023-04-20T21:26:24.606Z,12.17
2023-04-20T21:28:51.639Z,12.24
2023-04-20T21:31:18.719Z,12.23
2023-04-20T21:33:46.001Z,12.19
2023-04-20T21:36:13.038Z,12.15
2023-04-20T21:38:40.199Z,12.24
2023-04-20T21:41:07.685Z,12.26
2023-04-20T21:43:34.729Z,12.31
2023-04-20T21:46:01.800Z,12.36
2023-04-20T21:48:29.109Z,12.36
2023-04-20T21:50:56.146Z,12.21
2023-04-20T21:53:23.299Z,12.27
2023-04-20T21:55:50.629Z,12.24
2023-04-20T21:58:17.715Z,12.31
2023-04-20T22:00:44.776Z,12.36
2023-04-20T22:03:12.102Z,12.46
2023-04-20T22:05:39.255Z,12.48
2023-04-20T22:08:06.734Z,12.37
2023-04-20T22:10:33.888Z,12.32
2023-04-20T22:13:00.951Z,12.26
2023-04-20T22:15:28.069Z,12.32
2023-04-20T22:17:55.266Z,12.41
2023-04-20T22:20:22.522Z,12.51
2023-04-20T22:22:49.770Z,12.56
2023-04-20T22:25:16.866Z,12.64
2023-04-20T22:27:44.140Z,12.55
2023-04-20T22:30:11.455Z,12.53
2023-04-20T22:32:38.807Z,12.48
2023-04-20T22:35:06.244Z,12.52
2023-04-20T22:37:33.599Z,12.49
2023-04-20T22:40:00.775Z,12.65
2023-04-20T22:42:27.922Z,12.72
2023-04-20T22:44:55.190Z,12.62
2023-04-20T22:47:22.453Z,12.57
2023-04-20T22:49:51.443Z,12.68
2023-04-20T22:52:18.631Z,12.55
2023-04-20T22:54:48.232Z,12.57
2023-04-20T22:57:16.055Z,12.65
2023-04-20T22:59:43.231Z,12.68
2023-04-20T23:02:10.617Z,12.67
2023-04-20T23:04:37.820Z,12.73
2023-04-20T23:07:05.095Z,12.70
2023-04-20T23:09:33.914Z,12.64
2023-04-20T23:12:03.473Z,12.76
2023-04-20T23:14:30.536Z,12.74
2023-04-20T23:17:00.074Z,12.61
2023-04-20T23:19:28.401Z,12.67
2023-04-20T23:21:55.603Z,12.67
2023-04-20T23:24:22.698Z,12.59
2023-04-20T23:26:49.795Z,12.62
2023-04-20T23:29:17.141Z,12.61
2023-04-20T23:31:44.529Z,12.52
2023-04-20T23:34:11.865Z,12.49
2023-04-20T23:36:39.054Z,12.42
2023-04-20T23:39:06.348Z,12.47
2023-04-20T23:41:33.653Z,12.55
2023-04-20T23:44:00.897Z,12.47
2023-04-20T23:46:28.395Z,12.45
2023-04-20T23:48:55.819Z,12.33
2023-04-20T23:51:22.979Z,12.29
2023-04-20T23:53:50.149Z,12.29
2023-04-20T23:56:17.212Z,12.33
2023-04-20T23:58:44.416Z,12.39
